Terminal Aerodrome Forecast
Issued by NWS Bismarck, ND

Home | Current Version | Previous Version | Graphics & Text | Print | Product List | Glossary On
Versions: 1 2 3 4 5 6 7 8 9 10 11 12 13 14 15 16 17 18 19
000
FTUS43 KBIS 280525
TAFISN
TAF
KISN 280525Z 2806/2906 20015G25KT P6SM VCTS BKN080CB
     FM280800 24018G28KT P6SM BKN025 BKN080
     FM281500 24020G35KT P6SM -SHRA OVC025
     FM281800 28035G50KT P6SM -SHRA OVC025
     FM290200 28020G30KT P6SM VCSH BKN050 OVC080=

USA.gov is the U.S. government's official web portal to all federal, state and local government web resources and services.